Time;durP1;ratioP1;P1;durP2;ratioP2;P2;SDS_P1;SDS_P2;PMS_P1;PMS_P2;Temp;Humidity;BMP_temperature;BMP_pressure;BME280_temperature;BME280_humidity;BME280_pressure;Samples;Min_cycle;Max_cycle;Signal;HPM_P1;HPM_P2
2022/12/21 00:04:00;;;;;;;9.82;2.17;;;;;;;6.07;79.56;99300.69;5019929;27;20397;-59
2022/12/21 00:06:32;;;;;;;17.98;2.75;;;;;;;6.12;78.96;99304.13;4982876;28;20668;-58
2022/12/21 00:08:59;;;;;;;8.80;1.55;;;;;;;6.13;79.29;99305.88;4980919;28;20053;-58
2022/12/21 00:11:28;;;;;;;12.13;2.15;;;;;;;6.16;79.68;99305.88;4984643;28;20042;-60
2022/12/21 00:13:57;;;;;;;10.32;1.83;;;;;;;6.15;79.92;99304.16;4968665;28;20051;-58
2022/12/21 00:16:27;;;;;;;13.93;2.15;;;;;;;6.16;79.38;99299.88;4964278;28;20050;-59
2022/12/21 00:18:55;;;;;;;10.10;1.98;;;;;;;6.17;80.43;99301.59;4963190;28;20043;-58
2022/12/21 00:21:24;;;;;;;14.00;1.90;;;;;;;6.17;80.16;99287.03;4972680;28;20046;-61
2022/12/21 00:23:53;;;;;;;8.38;1.88;;;;;;;6.17;79.35;99292.16;4985066;28;20054;-58
2022/12/21 00:26:22;;;;;;;16.60;2.92;;;;;;;6.15;80.06;99283.56;4986308;28;20089;-61
2022/12/21 00:28:52;;;;;;;11.18;1.67;;;;;;;6.14;79.62;99279.31;4983803;28;20128;-57
2022/12/21 00:31:23;;;;;;;5.55;1.00;;;;;;;6.13;79.76;99279.28;4979586;28;20078;-60
2022/12/21 00:33:50;;;;;;;10.35;0.88;;;;;;;6.13;79.48;99280.16;4979362;28;20069;-58
2022/12/21 00:36:19;;;;;;;18.65;1.58;;;;;;;6.16;79.71;99280.19;4976730;28;20047;-59
2022/12/21 00:38:47;;;;;;;23.30;1.75;;;;;;;6.16;79.32;99284.44;4978419;28;20082;-57
2022/12/21 00:41:16;;;;;;;17.35;1.45;;;;;;;6.17;78.98;99271.59;4979298;28;20055;-59
2022/12/21 00:43:44;;;;;;;15.55;2.20;;;;;;;6.18;79.20;99287.88;4977748;28;20066;-58
2022/12/21 00:46:17;;;;;;;15.57;4.28;;;;;;;6.22;79.71;99291.31;4977860;28;20508;-62
2022/12/21 00:48:44;;;;;;;16.15;2.05;;;;;;;6.24;79.56;99284.44;4983069;28;20046;-57
2022/12/21 00:51:15;;;;;;;8.55;1.92;;;;;;;6.23;79.07;99285.31;4986090;28;20181;-58
2022/12/21 00:53:41;;;;;;;11.65;1.90;;;;;;;6.23;79.28;99281.03;4984832;28;20046;-56
2022/12/21 00:56:09;;;;;;;14.63;3.00;;;;;;;6.24;80.45;99276.75;4987806;28;20640;-59
2022/12/21 00:58:37;;;;;;;9.25;1.77;;;;;;;6.21;79.42;99281.91;4982446;28;20046;-61
2022/12/21 01:01:11;;;;;;;12.65;2.50;;;;;;;6.27;79.62;99289.63;4980694;28;20064;-58
2022/12/21 01:03:37;;;;;;;11.60;3.08;;;;;;;6.27;79.59;99272.47;4981252;28;20050;-59
2022/12/21 01:06:04;;;;;;;15.18;2.13;;;;;;;6.28;80.01;99263.91;4985264;28;20161;-62
2022/12/21 01:08:31;;;;;;;8.00;2.58;;;;;;;6.27;80.82;99256.19;4986292;28;20063;-61
2022/12/21 01:11:00;;;;;;;7.35;1.25;;;;;;;6.30;79.99;99258.75;4985175;28;22080;-60
2022/12/21 01:13:28;;;;;;;14.15;1.02;;;;;;;6.32;80.85;99248.47;4977656;28;20046;-60
2022/12/21 01:15:54;;;;;;;6.75;1.88;;;;;;;6.33;80.69;99251.06;4969976;28;20051;-59
2022/12/21 01:18:22;;;;;;;9.32;2.00;;;;;;;6.30;80.46;99251.91;4965418;28;20101;-57
2022/12/21 01:20:54;;;;;;;7.13;0.82;;;;;;;6.36;80.43;99255.34;4967612;28;20137;-58
2022/12/21 01:23:24;;;;;;;12.27;2.20;;;;;;;6.35;79.36;99254.47;4966474;28;20109;-61
2022/12/21 01:25:51;;;;;;;10.52;1.63;;;;;;;6.40;80.13;99247.66;4968413;28;20173;-63
2022/12/21 01:28:20;;;;;;;7.60;1.30;;;;;;;6.42;80.92;99248.50;4971808;28;20133;-59
2022/12/21 01:30:48;;;;;;;15.23;1.17;;;;;;;6.46;79.21;99248.50;4968866;28;21375;-60
2022/12/21 01:33:19;;;;;;;10.70;1.50;;;;;;;6.48;80.61;99239.09;4966382;28;20046;-60
2022/12/21 01:35:46;;;;;;;;;;;;;;;6.39;80.45;99235.63;4968040;28;20047;-57
2022/12/21 01:38:14;;;;;;;13.68;1.50;;;;;;;6.48;81.08;99239.09;4968511;28;19929;-60
2022/12/21 01:40:42;;;;;;;13.57;1.35;;;;;;;6.48;81.00;99239.09;4963615;28;20521;-59
2022/12/21 01:43:49;;;;;;;21.88;1.52;;;;;;;6.56;80.12;99239.94;4967055;28;20039;-58
2022/12/21 01:46:27;;;;;;;8.32;1.38;;;;;;;6.58;79.29;99230.50;4972771;28;20068;-58
2022/12/21 01:51:38;;;;;;;14.55;1.77;;;;;;;6.62;79.85;99231.38;5039878;28;20781;-60
2022/12/21 01:54:13;;;;;;;10.13;2.78;;;;;;;6.61;79.16;99235.66;4997427;28;20131;-58
2022/12/21 01:56:42;;;;;;;5.85;2.20;;;;;;;6.62;80.39;99229.63;4998482;28;20141;-60
2022/12/21 01:59:16;;;;;;;4.65;2.08;;;;;;;6.60;79.94;99233.06;4991956;28;20132;-60
2022/12/21 02:01:43;;;;;;;10.20;2.22;;;;;;;6.62;80.79;99227.06;4996452;28;20132;-61
2022/12/21 02:04:10;;;;;;;11.35;2.08;;;;;;;6.64;80.34;99240.81;4993997;28;20204;-58
2022/12/21 02:09:17;;;;;;;9.13;2.60;;;;;;;6.56;79.68;99239.94;5102227;27;20396;-59
2022/12/21 02:11:45;;;;;;;11.48;2.72;;;;;;;6.60;80.25;99244.22;5056029;28;20099;-55
2022/12/21 02:14:13;;;;;;;10.60;3.13;;;;;;;6.59;80.54;99232.22;5054901;28;20044;-59
2022/12/21 02:30:18;;;;;;;16.15;1.42;;;;;;;6.61;79.65;99224.47;5027208;27;20944;-61
2022/12/21 02:33:12;;;;;;;11.90;1.38;;;;;;;6.59;79.66;99227.09;5000851;28;20138;-57
2022/12/21 02:41:34;;;;;;;12.82;2.72;;;;;;;6.54;80.03;99213.34;5041918;28;20402;-58
2022/12/21 02:44:15;;;;;;;7.78;2.38;;;;;;;6.58;79.18;99211.66;5003544;28;20061;-60
2022/12/21 02:52:10;;;;;;;12.93;2.83;;;;;;;6.76;78.99;99203.06;5080535;27;20404;-62
2022/12/21 02:54:38;;;;;;;5.95;2.50;;;;;;;6.67;79.59;99196.19;5043004;28;20141;-61
2022/12/21 02:57:05;;;;;;;17.27;3.10;;;;;;;6.69;79.98;99197.06;5037352;28;20045;-58
2022/12/21 02:59:37;;;;;;;10.95;2.75;;;;;;;6.66;80.82;99191.91;5037559;28;20049;-59
2022/12/21 03:16:07;;;;;;;8.68;1.52;;;;;;;6.76;80.14;99167.03;5035730;28;20398;-59
2022/12/21 03:19:03;;;;;;;10.40;1.20;;;;;;;6.74;81.08;99169.59;5000565;28;20064;-57
2022/12/21 03:21:37;;;;;;;8.85;1.52;;;;;;;6.83;80.71;99168.72;5000729;28;20055;-58
2022/12/21 03:24:13;;;;;;;11.70;1.13;;;;;;;6.84;81.20;99165.28;5002066;28;20054;-63
2022/12/21 03:29:27;;;;;;;4.97;1.45;;;;;;;6.90;79.80;99169.56;5045071;28;20407;-60
2022/12/21 03:32:03;;;;;;;6.68;1.63;;;;;;;6.90;80.44;99165.28;5005861;28;20054;-60
2022/12/21 03:34:35;;;;;;;12.90;2.72;;;;;;;6.90;79.64;99162.72;4998320;28;20413;-62
2022/12/21 03:39:44;;;;;;;10.10;1.77;;;;;;;6.89;80.75;99148.09;5075512;27;20393;-61
2022/12/21 03:42:18;;;;;;;13.23;3.08;;;;;;;6.89;80.25;99148.09;5030887;28;20172;-60
2022/12/21 03:44:58;;;;;;;4.65;1.05;;;;;;;6.94;81.22;99146.41;5032779;28;20203;-57
2022/12/21 03:47:30;;;;;;;9.52;1.80;;;;;;;6.97;80.21;99145.53;5032278;28;20137;-60
2022/12/21 03:50:01;;;;;;;7.78;2.28;;;;;;;6.97;79.95;99139.50;5032014;28;20140;-53
2022/12/21 03:52:34;;;;;;;10.15;1.83;;;;;;;7.01;80.09;99136.06;5034545;28;20092;-63
2022/12/21 03:57:38;;;;;;;10.98;1.77;;;;;;;7.42;79.65;99123.88;5070187;27;20772;-59
2022/12/21 04:00:06;;;;;;;9.57;1.38;;;;;;;7.24;79.63;99128.28;5034920;28;20106;-61
2022/12/21 04:05:17;;;;;;;5.90;2.22;;;;;;;7.09;80.10;99118.88;5032530;28;20413;-61
2022/12/21 04:07:47;;;;;;;9.93;1.08;;;;;;;7.11;80.29;99117.16;5014963;28;20421;-60
2022/12/21 04:10:17;;;;;;;14.77;2.97;;;;;;;7.11;81.41;99112.00;5015220;28;20050;-58
2022/12/21 04:12:46;;;;;;;11.50;2.58;;;;;;;7.12;80.50;99124.00;5015115;28;20045;-57
2022/12/21 04:15:21;;;;;;;12.27;2.80;;;;;;;7.13;80.98;99120.56;5025245;28;20056;-59
2022/12/21 04:17:49;;;;;;;11.02;2.83;;;;;;;7.15;81.32;99124.00;5037372;28;20697;-55
2022/12/21 04:28:28;;;;;;;8.57;1.52;;;;;;;7.18;81.57;99118.84;4995431;28;20093;-58
2022/12/21 04:31:15;;;;;;;5.05;1.75;;;;;;;7.19;80.50;99124.84;4999006;28;20500;-60
2022/12/21 04:33:42;;;;;;;9.63;2.35;;;;;;;7.24;80.61;99115.41;4998141;28;20128;-61
2022/12/21 04:38:55;;;;;;;12.75;1.52;;;;;;;7.19;80.81;99104.25;4998093;28;20310;-58
2022/12/21 04:41:21;;;;;;;11.50;2.03;;;;;;;7.24;80.02;99106.81;4996169;28;20073;-60
2022/12/21 04:43:48;;;;;;;8.45;2.03;;;;;;;7.26;80.28;99120.56;5000734;28;20564;-63
2022/12/21 04:46:15;;;;;;;6.45;1.30;;;;;;;7.25;81.24;99114.53;4998634;28;20073;-62
2022/12/21 04:48:43;;;;;;;10.50;1.30;;;;;;;7.24;81.20;99106.81;4998450;28;20076;-60
2022/12/21 04:51:15;;;;;;;14.65;1.50;;;;;;;7.30;81.27;99111.94;5005189;28;20104;-59
2022/12/21 04:53:41;;;;;;;7.55;2.10;;;;;;;7.29;81.34;99099.91;4992859;28;20069;-58
2022/12/21 04:56:09;;;;;;;10.25;1.23;;;;;;;7.28;80.34;99096.50;4993023;28;20145;-57
2022/12/21 04:58:38;;;;;;;9.15;1.30;;;;;;;7.30;80.24;99084.44;4995244;28;20149;-59
2022/12/21 05:01:12;;;;;;;12.05;1.83;;;;;;;7.25;80.55;99077.59;4995213;28;20050;-54
2022/12/21 05:03:39;;;;;;;10.70;1.77;;;;;;;7.29;80.92;99084.44;4997602;28;20061;-62
2022/12/21 05:06:08;;;;;;;8.40;1.73;;;;;;;7.25;81.25;99075.03;4994696;28;20177;-63
2022/12/21 05:08:35;;;;;;;9.13;1.75;;;;;;;7.29;80.64;99076.72;4998342;28;20050;-59
2022/12/21 05:13:48;;;;;;;15.43;3.97;;;;;;;7.26;80.86;99079.34;5020910;27;20397;-58
2022/12/21 05:16:18;;;;;;;7.93;2.17;;;;;;;7.19;80.19;99079.34;4997357;28;20068;-63
2022/12/21 05:18:45;;;;;;;;;;;;;;;7.10;80.94;99071.69;4998731;28;20045;-58
2022/12/21 05:21:12;;;;;;;9.13;2.65;;;;;;;7.12;80.64;99072.50;4998723;28;19981;-60
2022/12/21 05:23:39;;;;;;;8.57;2.25;;;;;;;7.13;80.31;99081.94;4997012;28;20056;-60
2022/12/21 05:26:06;;;;;;;8.85;2.40;;;;;;;7.13;81.00;99079.38;4992938;28;20078;-58
2022/12/21 05:28:42;;;;;;;8.25;2.60;;;;;;;7.15;80.14;99062.19;4990547;28;20153;-57
2022/12/21 05:31:08;;;;;;;7.20;3.58;;;;;;;7.20;81.07;99063.03;4992040;28;20046;-58
2022/12/21 05:33:35;;;;;;;4.82;3.60;;;;;;;7.18;81.01;99049.31;4998247;28;20050;-59
2022/12/21 05:36:04;;;;;;;7.90;2.40;;;;;;;7.19;80.40;99063.91;4992880;28;20100;-62
2022/12/21 05:38:31;;;;;;;10.13;2.60;;;;;;;7.20;80.72;99065.59;4998702;28;20073;-61
2022/12/21 05:40:57;;;;;;;9.55;2.92;;;;;;;7.25;81.13;99069.88;4989862;28;20039;-60
2022/12/21 05:43:24;;;;;;;5.78;2.97;;;;;;;7.27;80.45;99066.44;4991841;28;20054;-61
2022/12/21 05:45:52;;;;;;;6.25;2.70;;;;;;;7.29;79.66;99063.84;4988738;28;20659;-59
2022/12/21 05:48:19;;;;;;;10.35;3.17;;;;;;;7.30;79.78;99066.41;4993065;28;20712;-62
2022/12/21 05:50:46;;;;;;;11.93;2.78;;;;;;;7.29;81.29;99063.84;4994308;28;20125;-59
2022/12/21 05:53:12;;;;;;;7.72;3.03;;;;;;;7.32;79.82;99061.25;4986683;28;20081;-60
2022/12/21 05:55:43;;;;;;;12.65;2.78;;;;;;;7.34;80.40;99069.84;4983745;28;20054;-59
2022/12/21 05:58:11;;;;;;;;;;;;;;;7.26;80.04;99069.03;4991594;28;20046;-60
2022/12/21 06:00:38;;;;;;;4.68;2.67;;;;;;;7.33;80.40;99070.72;4985373;28;19930;-61
2022/12/21 06:03:05;;;;;;;10.20;3.05;;;;;;;7.35;80.64;99068.97;4989081;28;20153;-57
2022/12/21 06:05:34;;;;;;;7.68;3.25;;;;;;;7.38;81.16;99073.25;4988690;28;20105;-59
2022/12/21 06:08:01;;;;;;;4.95;3.20;;;;;;;7.37;81.07;99067.25;4991246;28;20133;-57
2022/12/21 06:10:27;;;;;;;6.30;2.38;;;;;;;7.37;81.36;99077.56;4985666;28;20138;-60
2022/12/21 06:12:54;;;;;;;9.07;2.53;;;;;;;7.39;80.87;99086.13;4991268;28;20046;-60
2022/12/21 06:15:21;;;;;;;2.75;2.20;;;;;;;7.38;80.81;99083.56;4987009;28;20109;-57
2022/12/21 06:17:48;;;;;;;1.85;1.75;;;;;;;7.41;81.45;99106.72;4987038;28;20078;-57
2022/12/21 06:20:16;;;;;;;8.55;1.83;;;;;;;7.39;80.53;99106.72;4991972;28;20117;-58
2022/12/21 06:22:43;;;;;;;5.00;0.55;;;;;;;7.39;80.99;99106.72;4988900;28;20574;-58
2022/12/21 06:25:10;;;;;;;4.28;3.97;;;;;;;7.37;80.12;99110.19;4969199;28;20097;-60
2022/12/21 06:27:36;;;;;;;2.72;1.65;;;;;;;7.34;80.27;99103.34;4974369;28;20050;-57
2022/12/21 06:30:04;;;;;;;2.08;1.98;;;;;;;7.31;79.71;99109.38;4972487;28;20070;-59
2022/12/21 06:32:31;;;;;;;0.70;0.13;;;;;;;7.25;80.31;99105.94;4975403;28;20500;-58
2022/12/21 06:34:57;;;;;;;3.00;1.65;;;;;;;7.18;79.09;99102.53;4978388;28;20071;-56
2022/12/21 06:37:24;;;;;;;2.45;2.10;;;;;;;7.09;78.60;99095.69;4973689;28;20651;-60
2022/12/21 06:39:50;;;;;;;1.73;1.63;;;;;;;7.04;79.63;99084.56;4974003;28;20077;-57
2022/12/21 06:42:17;;;;;;;1.27;1.27;;;;;;;6.98;79.36;99094.88;4975342;28;20071;-60
2022/12/21 06:44:44;;;;;;;1.42;1.27;;;;;;;6.94;78.97;99096.63;4981476;28;20493;-57
2022/12/21 06:47:10;;;;;;;2.35;1.80;;;;;;;6.91;77.91;99099.19;4978192;28;20116;-55
2022/12/21 06:49:37;;;;;;;0.55;0.30;;;;;;;6.86;78.49;99094.06;4975072;28;20987;-57
2022/12/21 06:52:03;;;;;;;1.88;1.77;;;;;;;6.81;78.38;99088.94;4979899;28;20042;-58
2022/12/21 06:54:31;;;;;;;1.10;1.10;;;;;;;6.77;79.67;99065.78;4974727;28;20529;-57
2022/12/21 06:56:57;;;;;;;1.92;1.50;;;;;;;6.76;79.44;99064.06;4970377;28;20078;-58
2022/12/21 06:59:24;;;;;;;1.35;1.30;;;;;;;6.75;79.05;99067.53;4977627;28;20054;-60
2022/12/21 07:01:51;;;;;;;0.82;0.30;;;;;;;6.72;79.04;99073.50;4970345;28;20639;-57
2022/12/21 07:04:17;;;;;;;1.88;1.77;;;;;;;6.73;79.93;99074.38;4979407;28;20054;-58
2022/12/21 07:06:44;;;;;;;1.52;1.23;;;;;;;6.66;79.83;99084.66;4967637;28;20046;-60
2022/12/21 07:09:11;;;;;;;1.40;1.13;;;;;;;6.66;80.21;99094.97;4976048;28;20116;-61
2022/12/21 07:11:38;;;;;;;3.50;2.15;;;;;;;6.66;79.03;99079.53;4977005;28;20058;-59
2022/12/21 07:14:05;;;;;;;1.27;1.17;;;;;;;6.66;79.66;99094.97;4976416;28;20038;-59
2022/12/21 07:16:32;;;;;;;3.47;1.80;;;;;;;6.67;79.72;99094.13;4976380;28;20678;-57
2022/12/21 07:18:59;;;;;;;1.50;1.40;;;;;;;6.65;79.38;99106.13;4976008;28;20518;-57
2022/12/21 07:21:25;;;;;;;10.93;4.53;;;;;;;6.66;78.63;99105.25;4975791;28;20073;-59
2022/12/21 07:23:52;;;;;;;6.72;3.53;;;;;;;6.66;79.44;99114.72;4974713;28;20643;-57
2022/12/21 07:26:21;;;;;;;2.65;2.03;;;;;;;6.63;77.78;99107.84;4967328;28;20074;-59
2022/12/21 07:28:48;;;;;;;1.25;0.60;;;;;;;6.61;77.22;99107.00;4975200;28;20583;-59
2022/12/21 07:31:17;;;;;;;1.45;1.27;;;;;;;6.59;78.62;99108.72;4969940;28;20058;-60
2022/12/21 07:33:45;;;;;;;2.00;1.90;;;;;;;6.52;77.62;99097.56;4968210;28;20138;-59
2022/12/21 07:36:12;;;;;;;1.73;1.63;;;;;;;6.54;76.80;99079.56;4973013;28;20057;-57
2022/12/21 07:38:40;;;;;;;1.50;0.60;;;;;;;6.56;77.39;99080.41;4975401;28;20609;-61
2022/12/21 07:41:09;;;;;;;1.77;1.67;;;;;;;6.51;76.72;99079.56;4977317;28;20081;-56
2022/12/21 07:43:37;;;;;;;1.88;1.63;;;;;;;6.50;75.04;99062.41;4973471;28;20038;-58
2022/12/21 07:46:04;;;;;;;1.50;1.40;;;;;;;6.51;76.14;99064.13;4973399;28;20050;-61
2022/12/21 07:48:32;;;;;;;1.85;1.75;;;;;;;6.49;75.54;99063.28;4974676;28;20058;-61
2022/12/21 07:50:59;;;;;;;1.60;1.50;;;;;;;6.45;74.98;99041.00;4969856;28;20050;-57
2022/12/21 07:53:25;;;;;;;3.50;1.70;;;;;;;6.47;75.63;99049.56;4971770;28;20059;-59
2022/12/21 07:55:57;;;;;;;1.50;1.40;;;;;;;6.52;74.81;99045.28;4976083;28;20046;-58
2022/12/21 07:58:24;;;;;;;2.75;2.55;;;;;;;6.53;75.56;99046.97;4972173;28;20053;-59
2022/12/21 08:00:50;;;;;;;1.75;1.65;;;;;;;6.54;74.43;99041.84;4968820;28;20065;-60
2022/12/21 08:03:17;;;;;;;1.73;1.63;;;;;;;6.55;75.17;99046.09;4969294;28;20051;-60
2022/12/21 08:05:45;;;;;;;2.25;1.75;;;;;;;6.56;75.73;99057.28;4975565;28;20070;-58
2022/12/21 08:08:11;;;;;;;1.85;1.75;;;;;;;6.55;75.57;99055.53;4974706;28;20046;-57
2022/12/21 08:10:38;;;;;;;1.73;1.63;;;;;;;6.54;75.11;99061.53;4974547;28;20057;-58
2022/12/21 08:13:05;;;;;;;3.15;1.83;;;;;;;6.51;75.38;99044.41;4972642;28;20051;-61
2022/12/21 08:15:32;;;;;;;4.03;2.60;;;;;;;6.50;76.04;99046.97;4971091;28;20054;-58
2022/12/21 08:17:58;;;;;;;2.58;1.58;;;;;;;6.47;75.41;99063.28;4973997;28;20071;-58
2022/12/21 08:20:33;;;;;;;2.67;2.47;;;;;;;6.43;76.01;99062.41;4969070;28;20065;-58
2022/12/21 08:23:00;;;;;;;2.20;2.10;;;;;;;6.43;74.45;99072.69;4974821;28;20053;-60
2022/12/21 08:25:26;;;;;;;2.88;2.58;;;;;;;6.41;75.41;99069.28;4972083;28;20148;-61
2022/12/21 08:27:54;;;;;;;6.28;2.05;;;;;;;6.37;75.08;99077.88;4972418;28;20046;-59
2022/12/21 08:30:21;;;;;;;0.80;0.20;;;;;;;6.38;76.14;99064.16;4973205;28;20462;-58
2022/12/21 08:32:47;;;;;;;1.67;1.58;;;;;;;6.39;75.43;99065.84;4972308;28;20176;-59
2022/12/21 08:35:14;;;;;;;2.63;2.10;;;;;;;6.39;75.90;99083.84;4976973;28;20957;-58
2022/12/21 08:37:40;;;;;;;1.90;1.40;;;;;;;6.38;74.77;99069.28;4973359;28;20081;-57
2022/12/21 08:40:08;;;;;;;3.60;1.92;;;;;;;6.38;75.77;99071.88;4973059;28;20374;-59
2022/12/21 08:42:34;;;;;;;1.15;1.15;;;;;;;6.39;75.99;99071.00;4974645;28;20092;-59
2022/12/21 08:45:01;;;;;;;2.33;2.22;;;;;;;6.40;75.57;99070.16;4972805;28;20057;-59
2022/12/21 08:47:28;;;;;;;3.10;1.67;;;;;;;6.39;75.71;99071.00;4971456;28;20085;-56
2022/12/21 08:49:54;;;;;;;1.95;1.70;;;;;;;6.39;75.68;99073.56;4973804;28;20058;-62
2022/12/21 08:52:21;;;;;;;2.38;1.80;;;;;;;6.39;76.01;99065.84;4974818;28;20042;-58
2022/12/21 08:54:48;;;;;;;1.40;1.30;;;;;;;6.39;75.18;99060.72;4975213;28;20097;-60
2022/12/21 08:57:14;;;;;;;1.73;1.63;;;;;;;6.39;76.33;99055.56;4975771;28;20128;-59
2022/12/21 08:59:41;;;;;;;1.83;1.73;;;;;;;6.36;75.35;99058.16;4975673;28;20498;-62
2022/12/21 09:02:14;;;;;;;1.42;1.33;;;;;;;6.37;75.16;99052.16;4977618;28;20054;-61
2022/12/21 09:04:41;;;;;;;1.42;1.33;;;;;;;6.39;75.30;99055.56;4971676;28;20050;-61
2022/12/21 09:07:08;;;;;;;1.95;1.85;;;;;;;6.38;75.29;99060.75;4975531;28;20046;-57
2022/12/21 09:09:35;;;;;;;1.83;1.73;;;;;;;6.40;75.79;99067.59;4969789;28;20083;-61
2022/12/21 09:12:02;;;;;;;1.83;1.73;;;;;;;6.43;75.46;99057.28;4975084;28;20069;-60
2022/12/21 09:14:29;;;;;;;2.45;1.40;;;;;;;6.46;76.91;99050.41;4972836;28;20046;-59
2022/12/21 09:16:56;;;;;;;1.58;1.40;;;;;;;6.45;76.57;99054.69;4977358;28;20053;-58
2022/12/21 09:19:24;;;;;;;2.80;1.35;;;;;;;6.51;77.48;99064.13;4971311;28;20544;-61
2022/12/21 09:21:51;;;;;;;1.67;1.58;;;;;;;6.56;76.39;99058.09;4972655;28;20058;-60
2022/12/21 09:24:18;;;;;;;1.77;1.63;;;;;;;6.58;76.55;99055.53;4974651;28;20076;-60
2022/12/21 09:26:44;;;;;;;1.83;1.73;;;;;;;6.65;77.79;99049.50;4975247;28;20070;-61
2022/12/21 09:29:11;;;;;;;3.60;1.70;;;;;;;6.77;76.17;99047.75;4973737;28;20549;-60
2022/12/21 09:31:38;;;;;;;1.73;1.63;;;;;;;7.09;77.70;99046.78;4969302;28;20055;-58
2022/12/21 09:34:04;;;;;;;2.58;1.85;;;;;;;7.38;77.03;99040.63;4966286;28;20046;-61
2022/12/21 09:36:32;;;;;;;2.33;2.17;;;;;;;7.41;76.72;99044.91;4968552;28;20051;-60
2022/12/21 09:39:15;;;;;;;4.65;2.08;;;;;;;7.38;76.32;99038.06;4969274;28;20498;-61
2022/12/21 09:41:53;;;;;;;2.10;1.83;;;;;;;7.31;76.76;99041.53;4969814;28;20054;-55
2022/12/21 09:47:25;;;;;;;1.23;0.40;;;;;;;7.15;75.19;99057.06;5039446;27;20417;-58
2022/12/21 09:49:58;;;;;;;2.03;0.63;;;;;;;7.10;76.20;99053.66;4997324;28;20551;-62
2022/12/21 09:52:31;;;;;;;0.40;0.30;;;;;;;7.07;75.75;99048.50;5016389;28;20053;-59
2022/12/21 09:55:04;;;;;;;2.75;1.27;;;;;;;7.07;75.16;99058.81;5017565;28;20096;-61
2022/12/21 09:57:34;;;;;;;0.80;0.65;;;;;;;7.09;75.78;99057.06;5021698;28;20400;-59
2022/12/21 10:00:07;;;;;;;1.20;0.75;;;;;;;7.15;76.07;99059.63;5018669;28;20100;-57
2022/12/21 10:05:27;;;;;;;1.70;0.55;;;;;;;7.52;74.02;99057.72;5092918;27;20783;-61
2022/12/21 10:08:14;;;;;;;;;;;;;;;7.29;75.15;99054.41;5038790;28;20055;-57
2022/12/21 10:10:49;;;;;;;2.50;0.20;;;;;;;7.33;74.90;99055.25;5061439;28;19956;-59
2022/12/21 10:24:23;;;;;;;1.58;1.40;;;;;;;7.48;76.08;99064.63;5050395;28;20393;-59
2022/12/21 10:26:58;;;;;;;1.05;0.90;;;;;;;7.51;75.63;99066.31;5018195;28;20103;-63
2022/12/21 10:29:35;;;;;;;3.30;0.93;;;;;;;7.57;75.55;99061.97;5022819;28;20119;-59
2022/12/21 10:32:03;;;;;;;1.25;1.15;;;;;;;7.69;75.40;99068.78;5019912;28;20045;-61
2022/12/21 10:34:35;;;;;;;1.98;1.50;;;;;;;7.83;76.54;99065.22;5021479;28;20113;-62
2022/12/21 10:37:11;;;;;;;2.35;2.08;;;;;;;8.03;75.59;99059.06;5019551;28;20057;-59
2022/12/21 10:39:39;;;;;;;2.20;1.20;;;;;;;8.32;76.00;99060.53;5017020;28;20104;-60
2022/12/21 10:42:19;;;;;;;1.45;1.15;;;;;;;8.47;75.04;99055.22;5019864;28;20773;-63
2022/12/21 10:44:46;;;;;;;1.48;1.30;;;;;;;8.48;74.94;99048.34;5013217;28;20057;-60
2022/12/21 10:47:16;;;;;;;1.38;0.88;;;;;;;8.42;74.83;99049.28;5018274;28;20056;-59
2022/12/21 10:49:53;;;;;;;1.40;1.30;;;;;;;8.39;75.00;99038.97;5015869;28;20042;-60
2022/12/21 10:52:39;;;;;;;2.00;1.80;;;;;;;8.33;75.45;99054.50;5018144;28;20116;-61
2022/12/21 10:58:16;;;;;;;2.33;1.30;;;;;;;8.32;75.47;99051.09;5019286;27;20398;-59
2022/12/21 11:03:34;;;;;;;1.25;0.70;;;;;;;8.35;75.50;99043.28;5041696;27;20387;-61
2022/12/21 11:06:20;;;;;;;0.80;0.60;;;;;;;8.35;76.17;99042.47;4998051;28;20041;-59
2022/12/21 11:08:49;;;;;;;8.52;1.80;;;;;;;8.39;75.13;99057.03;4995474;28;20104;-59
2022/12/21 11:16:47;;;;;;;3.15;0.40;;;;;;;8.44;75.84;99037.19;5006458;27;21132;-56
2022/12/21 11:19:17;;;;;;;1.15;0.40;;;;;;;8.48;76.20;99038.03;5003348;28;20142;-61
2022/12/21 11:21:51;;;;;;;3.67;0.85;;;;;;;8.51;75.77;99047.47;4999434;28;20694;-58
2022/12/21 11:24:21;;;;;;;1.65;0.98;;;;;;;8.51;76.62;99047.47;5006029;28;20235;-62
2022/12/21 11:26:51;;;;;;;6.22;1.27;;;;;;;8.54;76.30;99050.06;4997931;28;20563;-62
2022/12/21 11:32:04;;;;;;;1.80;0.75;;;;;;;8.93;76.33;99037.56;5024206;27;20927;-63
2022/12/21 11:34:35;;;;;;;0.43;0.20;;;;;;;8.84;76.75;99035.94;5016995;28;20046;-56
2022/12/21 11:37:06;;;;;;;0.98;0.32;;;;;;;8.84;77.11;99035.06;5028225;28;20046;-61
2022/12/21 11:39:41;;;;;;;3.08;0.20;;;;;;;8.83;76.81;99026.47;5033850;28;20044;-62
2022/12/21 11:42:16;;;;;;;2.58;1.48;;;;;;;8.85;76.67;99026.47;5040578;28;20045;-59
2022/12/21 11:44:43;;;;;;;4.82;1.05;;;;;;;8.84;76.03;99035.06;5036283;28;20053;-59
2022/12/21 11:55:34;;;;;;;2.72;1.50;;;;;;;8.78;76.93;99040.31;5064902;28;20759;-61
2022/12/21 12:00:56;;;;;;;2.20;1.58;;;;;;;8.72;76.16;99026.59;5046998;27;20394;-60
2022/12/21 12:12:28;;;;;;;3.47;0.60;;;;;;;8.61;76.47;99025.84;5053677;27;20758;-60
2022/12/21 12:15:35;;;;;;;5.40;2.20;;;;;;;8.59;76.51;99025.03;5007430;28;20057;-58
2022/12/21 12:20:55;;;;;;;4.60;0.30;;;;;;;8.59;76.87;99009.53;5119158;27;20875;-58
2022/12/21 12:23:42;;;;;;;0.88;0.32;;;;;;;8.57;76.81;99013.84;5033366;28;20135;-60
2022/12/21 12:29:27;;;;;;;3.90;1.00;;;;;;;8.79;74.86;99019.66;5013708;27;20419;-59
2022/12/21 12:35:47;;;;;;;3.80;0.47;;;;;;;8.62;76.35;99004.34;5083092;27;20915;-58
2022/12/21 12:55:13;;;;;;;1.90;1.80;;;;;;;8.61;75.60;98997.47;5083979;27;20718;-62
2022/12/21 13:00:19;;;;;;;2.65;0.90;;;;;;;8.67;75.48;98997.41;5054893;28;20393;-60
2022/12/21 13:03:25;;;;;;;1.98;0.40;;;;;;;8.62;75.15;98999.19;5016766;28;20144;-59
2022/12/21 13:06:10;;;;;;;3.05;0.43;;;;;;;8.64;75.06;98992.28;5018262;28;20066;-63
2022/12/21 13:16:59;;;;;;;2.67;0.50;;;;;;;8.76;75.09;98985.25;5077716;27;20437;-61
2022/12/21 13:19:28;;;;;;;1.50;0.25;;;;;;;8.77;75.47;98981.78;5027985;28;20080;-60
2022/12/21 13:21:59;;;;;;;2.70;0.30;;;;;;;8.77;74.68;98981.78;5027931;28;20080;-61
2022/12/21 13:24:40;;;;;;;3.00;0.35;;;;;;;8.73;74.80;98981.84;5046426;28;20041;-58
2022/12/21 13:27:16;;;;;;;1.73;0.30;;;;;;;8.72;75.18;98980.13;5059531;28;20492;-62
2022/12/21 13:29:56;;;;;;;1.67;0.75;;;;;;;8.65;74.98;98970.75;5054885;28;20088;-60
2022/12/21 13:32:29;;;;;;;1.00;0.60;;;;;;;8.63;74.38;98959.59;5056250;28;20051;-59
2022/12/21 13:35:19;;;;;;;2.28;0.45;;;;;;;8.58;75.18;98956.22;5040718;28;20034;-59
2022/12/21 13:37:54;;;;;;;1.80;0.50;;;;;;;8.58;75.09;98951.06;5050047;28;20045;-59
2022/12/21 13:40:35;;;;;;;0.40;0.30;;;;;;;8.53;74.97;98948.53;5053683;28;20040;-61
2022/12/21 13:43:15;;;;;;;1.42;0.35;;;;;;;8.52;74.63;98940.78;5053716;28;20045;-58
2022/12/21 13:45:48;;;;;;;2.50;0.88;;;;;;;8.53;74.33;98937.31;5060231;28;20122;-62
2022/12/21 13:48:21;;;;;;;3.72;0.32;;;;;;;8.54;74.73;98928.75;5053566;28;20139;-60
2022/12/21 14:16:01;;;;;;;4.70;0.55;;;;;;;8.24;74.88;98910.97;5080905;27;20396;-63
2022/12/21 14:18:33;;;;;;;3.13;0.50;;;;;;;8.27;75.48;98899.78;5035897;28;20057;-58
2022/12/21 14:21:07;;;;;;;6.32;0.75;;;;;;;8.26;75.45;98898.06;5045527;28;20045;-59
2022/12/21 14:23:44;;;;;;;3.13;0.85;;;;;;;8.22;75.39;98898.13;5033384;28;20044;-61
2022/12/21 14:34:47;;;;;;;2.97;0.85;;;;;;;8.12;75.13;98914.56;5083432;27;20427;-62
2022/12/21 14:51:09;;;;;;;0.85;0.40;;;;;;;8.15;76.41;98911.97;5047355;28;20408;-59
2022/12/21 14:53:38;;;;;;;1.42;0.50;;;;;;;8.12;75.67;98905.97;5025636;28;20076;-61
2022/12/21 14:58:59;;;;;;;1.77;0.73;;;;;;;8.06;75.56;98912.91;5010786;28;20401;-62
2022/12/21 15:01:38;;;;;;;2.42;0.88;;;;;;;8.00;76.41;98907.81;4996942;28;20057;-62
2022/12/21 15:07:02;;;;;;;3.78;1.67;;;;;;;7.92;76.83;98910.47;5075218;27;20390;-60
2022/12/21 15:09:32;;;;;;;4.30;1.52;;;;;;;7.90;75.74;98919.94;5039166;28;20095;-62
2022/12/21 15:12:32;;;;;;;2.78;2.38;;;;;;;7.81;76.51;98914.88;5036859;28;20065;-59
2022/12/21 15:14:59;;;;;;;3.72;2.67;;;;;;;7.79;76.47;98911.44;5038968;28;20580;-61
2022/12/21 15:17:31;;;;;;;6.70;2.63;;;;;;;7.76;76.91;98908.91;5056472;28;20048;-60
2022/12/21 15:19:59;;;;;;;4.45;2.22;;;;;;;7.70;76.47;98904.69;5060408;28;20047;-58
2022/12/21 15:25:23;;;;;;;9.20;3.85;;;;;;;7.93;75.64;98901.00;5069025;27;20389;-60
2022/12/21 15:28:02;;;;;;;7.07;2.70;;;;;;;7.71;77.05;98896.91;5017307;28;20073;-63
2022/12/21 15:30:38;;;;;;;2.63;0.93;;;;;;;7.64;77.32;98895.28;5040421;28;20103;-61
2022/12/21 15:33:35;;;;;;;1.77;0.93;;;;;;;7.55;77.44;98895.34;5038386;28;20118;-60